Time;durP1;ratioP1;P1;durP2;ratioP2;P2;SDS_P1;SDS_P2;PMS_P1;PMS_P2;Temp;Humidity;BMP_temperature;BMP_pressure;BME280_temperature;BME280_humidity;BME280_pressure;Samples;Min_cycle;Max_cycle;Signal;HPM_P1;HPM_P2
2023/08/30 00:00:17;;;;;;;11.98;6.68;;;15.70;99.90;;;;;;5115148;28;20027;-67
2023/08/30 00:02:44;;;;;;;11.48;6.28;;;15.80;99.90;;;;;;5115258;28;20108;-68
2023/08/30 00:05:09;;;;;;;12.32;6.05;;;15.80;99.90;;;;;;5115043;28;20027;-68
2023/08/30 00:07:35;;;;;;;9.25;5.70;;;15.80;99.90;;;;;;5115579;28;20083;-67
2023/08/30 00:10:01;;;;;;;10.35;6.63;;;15.80;99.90;;;;;;5115031;28;20455;-68
2023/08/30 00:12:27;;;;;;;11.38;7.03;;;15.80;99.90;;;;;;5115231;28;20034;-67
2023/08/30 00:14:53;;;;;;;11.43;6.88;;;15.80;99.90;;;;;;5113848;28;20027;-68
2023/08/30 00:17:19;;;;;;;13.68;7.40;;;15.80;99.90;;;;;;5114295;28;20089;-67
2023/08/30 00:19:45;;;;;;;13.32;7.57;;;15.80;99.90;;;;;;5114494;28;20069;-67
2023/08/30 00:22:11;;;;;;;11.55;6.72;;;15.80;99.90;;;;;;5115733;28;20031;-66
2023/08/30 00:24:37;;;;;;;14.10;8.50;;;15.80;99.90;;;;;;5114987;27;20066;-67
2023/08/30 00:27:03;;;;;;;12.27;7.15;;;15.80;99.90;;;;;;5114969;28;20059;-68
2023/08/30 00:29:29;;;;;;;13.25;6.78;;;15.80;99.90;;;;;;5114524;28;20077;-68
2023/08/30 00:31:55;;;;;;;11.98;6.50;;;15.80;99.90;;;;;;5114859;28;20041;-68
2023/08/30 00:34:21;;;;;;;13.02;7.50;;;15.80;99.90;;;;;;5113936;28;20024;-67
2023/08/30 00:36:46;;;;;;;14.38;8.05;;;15.80;99.90;;;;;;5114754;28;20027;-67
2023/08/30 00:39:13;;;;;;;11.68;7.18;;;15.80;99.90;;;;;;5114681;28;20067;-68
2023/08/30 00:41:38;;;;;;;13.25;8.18;;;15.80;99.90;;;;;;5114574;28;20028;-68
2023/08/30 00:44:04;;;;;;;12.73;7.35;;;15.80;99.90;;;;;;5114497;28;20030;-66
2023/08/30 00:46:30;;;;;;;14.05;7.85;;;15.90;99.90;;;;;;5114173;28;20032;-68
2023/08/30 00:48:56;;;;;;;12.40;6.82;;;15.90;99.90;;;;;;5113863;28;20032;-67
2023/08/30 00:51:22;;;;;;;12.43;6.75;;;15.90;99.90;;;;;;5113904;28;20027;-67
2023/08/30 00:53:48;;;;;;;13.90;7.95;;;16.00;99.90;;;;;;5114191;28;20027;-68
2023/08/30 00:56:15;;;;;;;11.40;6.53;;;15.90;99.90;;;;;;5114243;28;20103;-68
2023/08/30 00:58:41;;;;;;;12.95;6.97;;;15.90;99.90;;;;;;5100219;28;20036;-68
2023/08/30 01:01:08;;;;;;;11.93;6.30;;;16.00;99.90;;;;;;5093079;28;20516;-67
2023/08/30 01:03:34;;;;;;;14.73;7.13;;;16.00;99.90;;;;;;5111983;28;20034;-68
2023/08/30 01:06:00;;;;;;;12.52;6.78;;;16.00;99.90;;;;;;5113656;28;20055;-67
2023/08/30 01:08:26;;;;;;;15.85;7.47;;;16.00;99.90;;;;;;5113814;28;20376;-68
2023/08/30 01:11:04;;;;;;;11.45;6.35;;;16.00;99.90;;;;;;5114276;27;20052;-66
2023/08/30 01:13:35;;;;;;;11.73;6.28;;;16.00;99.90;;;;;;5114202;28;20468;-67
2023/08/30 01:16:01;;;;;;;12.88;7.15;;;16.00;99.90;;;;;;5113761;28;20031;-67
2023/08/30 01:18:32;;;;;;;11.30;6.18;;;16.10;99.90;;;;;;5114289;28;20035;-67
2023/08/30 01:21:01;;;;;;;11.52;6.55;;;16.10;99.90;;;;;;5113972;28;20024;-66
2023/08/30 01:23:45;;;;;;;13.65;7.50;;;16.10;99.90;;;;;;5113799;28;20027;-68
2023/08/30 01:26:38;;;;;;;12.98;6.95;;;16.10;99.90;;;;;;5113082;28;20027;-67
2023/08/30 01:29:05;;;;;;;15.90;7.75;;;16.10;99.90;;;;;;5113643;28;20044;-68
2023/08/30 01:31:33;;;;;;;12.60;6.78;;;16.20;99.90;;;;;;5113589;28;20387;-67
2023/08/30 01:34:01;;;;;;;11.57;6.50;;;16.10;99.90;;;;;;5113746;28;20020;-68
2023/08/30 01:36:27;;;;;;;9.68;5.93;;;16.20;99.90;;;;;;5113513;28;20023;-67
2023/08/30 01:38:53;;;;;;;14.32;7.05;;;16.20;99.90;;;;;;5113421;28;20042;-67
2023/08/30 01:41:20;;;;;;;13.05;7.20;;;16.10;99.90;;;;;;5113178;28;20379;-67
2023/08/30 01:43:47;;;;;;;16.33;6.80;;;16.20;99.90;;;;;;5113401;28;20042;-67
2023/08/30 01:46:13;;;;;;;12.95;6.88;;;16.20;99.90;;;;;;5113705;28;20020;-67
2023/08/30 01:48:40;;;;;;;14.35;7.30;;;16.20;99.90;;;;;;5112106;28;20403;-66
2023/08/30 01:51:07;;;;;;;12.40;6.80;;;16.20;99.90;;;;;;5113114;28;20031;-68
2023/08/30 01:53:34;;;;;;;14.50;7.75;;;16.10;99.90;;;;;;5113009;28;20106;-67
2023/08/30 01:55:59;;;;;;;13.27;7.28;;;16.20;99.90;;;;;;5112021;28;20471;-68
2023/08/30 01:58:25;;;;;;;12.20;7.30;;;16.20;99.90;;;;;;5113286;28;20042;-67
2023/08/30 02:00:50;;;;;;;14.90;7.40;;;16.20;99.90;;;;;;5113242;28;20030;-67
2023/08/30 02:03:16;;;;;;;12.00;7.28;;;16.20;99.90;;;;;;5113252;28;20093;-68
2023/08/30 02:06:13;;;;;;;14.65;7.78;;;16.20;99.90;;;;;;5113366;28;20073;-67
2023/08/30 02:08:44;;;;;;;13.32;7.25;;;16.20;99.90;;;;;;5113529;28;20027;-68
2023/08/30 02:11:19;;;;;;;14.75;7.78;;;16.20;99.90;;;;;;5113380;28;20076;-67
2023/08/30 02:13:45;;;;;;;14.77;8.10;;;16.20;99.90;;;;;;5116041;28;20404;-67
2023/08/30 02:16:12;;;;;;;12.82;7.72;;;16.20;99.90;;;;;;5116962;28;20051;-67
2023/08/30 02:18:38;;;;;;;15.45;7.60;;;16.20;99.90;;;;;;5112760;28;20030;-67
2023/08/30 02:21:04;;;;;;;14.85;7.90;;;16.20;99.90;;;;;;5117340;28;20035;-67
2023/08/30 02:23:29;;;;;;;13.60;8.10;;;16.20;99.90;;;;;;5117443;28;20023;-67
2023/08/30 02:25:55;;;;;;;14.57;8.80;;;16.20;99.90;;;;;;5117483;28;20023;-68
2023/08/30 02:28:21;;;;;;;15.40;8.27;;;16.20;99.90;;;;;;5117341;28;20024;-67
2023/08/30 02:30:46;;;;;;;15.43;9.13;;;16.20;99.90;;;;;;5116952;28;20019;-67
2023/08/30 02:33:12;;;;;;;18.00;8.98;;;16.20;99.90;;;;;;5116631;28;20372;-67
2023/08/30 02:35:37;;;;;;;16.75;8.82;;;16.10;99.90;;;;;;5115656;28;20133;-67
2023/08/30 02:38:04;;;;;;;15.75;8.10;;;16.10;99.90;;;;;;5117323;28;20106;-67
2023/08/30 02:40:31;;;;;;;13.57;7.80;;;16.10;99.90;;;;;;5115979;28;20500;-67
2023/08/30 02:42:57;;;;;;;19.20;8.88;;;16.10;99.90;;;;;;5117015;28;20042;-68
2023/08/30 02:45:22;;;;;;;15.30;8.38;;;16.10;99.90;;;;;;5116935;28;20372;-67
2023/08/30 02:47:48;;;;;;;18.00;9.40;;;16.10;99.90;;;;;;5116964;28;20058;-68
2023/08/30 02:50:14;;;;;;;17.05;9.20;;;16.10;99.90;;;;;;5116018;28;20646;-68
2023/08/30 02:52:39;;;;;;;16.92;9.13;;;16.10;99.90;;;;;;5116864;28;20469;-68
2023/08/30 02:55:05;;;;;;;17.45;9.63;;;16.00;99.90;;;;;;5116712;28;20051;-68
2023/08/30 02:57:31;;;;;;;19.08;9.90;;;16.00;99.90;;;;;;5116907;28;20129;-67
2023/08/30 02:59:57;;;;;;;18.35;9.77;;;16.00;99.90;;;;;;5116374;28;20059;-67
2023/08/30 03:02:23;;;;;;;18.98;10.13;;;16.00;99.90;;;;;;5115975;28;20026;-67
2023/08/30 03:04:48;;;;;;;16.17;9.85;;;16.00;99.90;;;;;;5115183;28;20080;-67
2023/08/30 03:07:14;;;;;;;17.05;9.98;;;16.00;99.90;;;;;;5115688;28;20483;-68
2023/08/30 03:09:40;;;;;;;19.15;11.10;;;16.00;99.90;;;;;;5116354;28;20547;-69
2023/08/30 03:12:06;;;;;;;18.90;10.20;;;16.00;99.90;;;;;;5116262;28;20020;-68
2023/08/30 03:14:32;;;;;;;17.02;10.02;;;16.00;99.90;;;;;;5116787;28;20080;-68
2023/08/30 03:16:57;;;;;;;19.13;10.55;;;16.00;99.90;;;;;;5115958;27;20023;-68
2023/08/30 03:19:23;;;;;;;19.60;10.52;;;16.00;99.90;;;;;;5116291;28;20051;-68
2023/08/30 03:21:48;;;;;;;18.88;11.23;;;15.90;99.90;;;;;;5114647;28;20035;-66
2023/08/30 03:24:15;;;;;;;21.10;11.38;;;15.90;99.90;;;;;;5115625;28;20039;-67
2023/08/30 03:26:43;;;;;;;18.80;10.73;;;15.90;99.90;;;;;;5116236;28;20019;-67
2023/08/30 03:29:09;;;;;;;19.67;10.23;;;15.80;99.90;;;;;;5114364;28;20040;-68
2023/08/30 03:31:34;;;;;;;20.17;11.30;;;15.80;99.90;;;;;;5116039;28;20039;-68
2023/08/30 03:34:00;;;;;;;19.98;11.30;;;15.80;99.90;;;;;;5115932;28;20129;-68
2023/08/30 03:36:25;;;;;;;18.65;10.88;;;15.80;99.90;;;;;;5115682;28;20368;-67
2023/08/30 03:38:51;;;;;;;19.77;10.02;;;15.80;99.90;;;;;;5115888;28;20028;-68
2023/08/30 03:41:17;;;;;;;20.02;10.45;;;15.80;99.90;;;;;;5114257;28;20088;-67
2023/08/30 03:43:43;;;;;;;21.08;11.45;;;15.90;99.90;;;;;;5115597;27;20043;-67
2023/08/30 03:46:11;;;;;;;19.70;10.90;;;15.90;99.90;;;;;;5115597;28;20031;-67
2023/08/30 03:48:36;;;;;;;18.88;10.20;;;15.90;99.90;;;;;;5115740;28;20077;-68
2023/08/30 03:51:02;;;;;;;19.63;10.32;;;15.90;99.90;;;;;;5115629;28;20024;-67
2023/08/30 03:53:29;;;;;;;17.58;10.07;;;15.90;99.90;;;;;;5115301;28;20066;-66
2023/08/30 03:55:55;;;;;;;18.52;10.95;;;15.90;99.90;;;;;;5115693;28;20035;-67
2023/08/30 03:58:21;;;;;;;19.75;11.23;;;15.90;99.90;;;;;;5114982;28;20028;-68
2023/08/30 04:00:46;;;;;;;19.48;11.55;;;15.90;99.90;;;;;;5115409;28;20032;-67
2023/08/30 04:03:14;;;;;;;18.88;10.75;;;15.90;99.90;;;;;;5115484;28;20104;-67
2023/08/30 04:05:40;;;;;;;15.85;9.85;;;15.80;99.90;;;;;;5115210;28;20047;-67
2023/08/30 04:08:06;;;;;;;20.00;11.15;;;15.80;99.90;;;;;;5115345;28;20027;-68
2023/08/30 04:10:36;;;;;;;21.15;11.65;;;15.80;99.90;;;;;;5115523;28;20375;-67
2023/08/30 04:13:02;;;;;;;20.08;11.27;;;15.70;99.90;;;;;;5115146;28;20455;-68
2023/08/30 04:15:28;;;;;;;19.92;11.02;;;15.70;99.90;;;;;;5115131;28;20083;-68
2023/08/30 04:17:53;;;;;;;20.08;11.60;;;15.80;99.90;;;;;;5115482;28;20495;-67
2023/08/30 04:20:19;;;;;;;20.17;11.45;;;15.70;99.90;;;;;;5115421;28;20032;-67
2023/08/30 04:22:44;;;;;;;21.23;11.50;;;15.70;99.90;;;;;;5115302;28;20069;-67
2023/08/30 04:25:10;;;;;;;20.38;11.57;;;15.70;99.90;;;;;;5115429;28;20028;-67
2023/08/30 04:27:36;;;;;;;19.58;11.80;;;15.60;99.90;;;;;;5114967;28;20020;-68
2023/08/30 04:30:02;;;;;;;17.95;11.40;;;15.60;99.90;;;;;;5115469;28;20047;-68
2023/08/30 04:32:28;;;;;;;18.80;11.35;;;15.60;99.90;;;;;;5114547;28;20112;-67
2023/08/30 04:34:53;;;;;;;18.63;11.07;;;15.60;99.90;;;;;;5114368;28;20055;-67
2023/08/30 04:37:19;;;;;;;20.77;11.25;;;15.60;99.90;;;;;;5115096;28;20447;-68
2023/08/30 04:39:48;;;;;;;20.33;12.07;;;15.50;99.90;;;;;;5115548;28;20030;-67
2023/08/30 04:42:14;;;;;;;22.58;12.95;;;15.40;99.90;;;;;;5113393;28;20067;-68
2023/08/30 04:44:39;;;;;;;20.30;12.77;;;15.40;99.90;;;;;;5114752;28;20525;-67
2023/08/30 04:47:05;;;;;;;20.88;12.55;;;15.30;99.90;;;;;;5113524;28;20033;-68
2023/08/30 04:49:31;;;;;;;22.50;12.73;;;15.30;99.90;;;;;;5114352;28;20043;-68
2023/08/30 04:51:56;;;;;;;20.95;12.68;;;15.20;99.90;;;;;;5114880;28;20055;-68
2023/08/30 04:54:22;;;;;;;23.58;12.75;;;15.20;99.90;;;;;;5114429;28;20024;-68
2023/08/30 04:56:47;;;;;;;21.90;13.05;;;15.20;99.90;;;;;;5114302;28;20084;-66
2023/08/30 04:59:13;;;;;;;18.20;11.70;;;15.20;99.90;;;;;;5114638;28;20023;-67
2023/08/30 05:01:41;;;;;;;21.15;11.73;;;15.20;99.90;;;;;;5112000;28;20028;-67
2023/08/30 05:04:07;;;;;;;19.77;12.30;;;15.20;99.90;;;;;;5108974;28;20019;-67
2023/08/30 05:06:33;;;;;;;22.00;12.07;;;15.20;99.90;;;;;;5113626;28;20071;-67
2023/08/30 05:08:58;;;;;;;21.27;11.05;;;15.20;99.90;;;;;;5093746;28;20133;-68
2023/08/30 05:11:24;;;;;;;19.73;10.57;;;15.20;99.90;;;;;;5093837;28;20044;-68
2023/08/30 05:13:49;;;;;;;20.48;10.70;;;15.20;99.90;;;;;;5093651;28;20020;-68
2023/08/30 05:16:15;;;;;;;18.13;9.93;;;15.20;99.90;;;;;;5093838;28;20020;-67
2023/08/30 05:18:40;;;;;;;18.10;9.95;;;15.10;99.90;;;;;;5104649;28;20032;-67
2023/08/30 05:21:06;;;;;;;19.50;10.60;;;15.20;99.90;;;;;;5114188;28;20130;-68
2023/08/30 05:23:31;;;;;;;18.80;10.63;;;15.20;99.90;;;;;;5113945;28;20023;-67
2023/08/30 05:25:57;;;;;;;19.17;10.07;;;15.20;99.90;;;;;;5113580;28;20468;-66
2023/08/30 05:28:23;;;;;;;18.10;10.15;;;15.20;99.90;;;;;;5114254;28;20080;-68
2023/08/30 05:30:48;;;;;;;17.10;10.05;;;15.20;99.90;;;;;;5114164;28;20055;-67
2023/08/30 05:33:14;;;;;;;16.88;9.93;;;15.20;99.90;;;;;;5113815;28;20069;-67
2023/08/30 05:35:39;;;;;;;17.88;9.73;;;15.20;99.90;;;;;;5113560;28;20092;-67
2023/08/30 05:38:05;;;;;;;18.35;10.80;;;15.20;99.90;;;;;;5113466;28;20088;-68
2023/08/30 05:40:31;;;;;;;17.60;10.00;;;15.10;99.90;;;;;;5113545;28;20490;-67
2023/08/30 05:42:56;;;;;;;17.98;10.80;;;15.10;99.90;;;;;;5113530;28;20027;-68
2023/08/30 05:45:22;;;;;;;18.83;9.98;;;15.10;99.90;;;;;;5113689;28;20379;-68
2023/08/30 05:47:48;;;;;;;20.08;10.52;;;15.10;99.90;;;;;;5113256;28;20034;-68
2023/08/30 05:50:13;;;;;;;18.30;10.23;;;15.10;99.90;;;;;;5113527;28;20042;-67
2023/08/30 05:52:41;;;;;;;21.90;10.65;;;15.00;99.90;;;;;;5113222;28;20106;-67
2023/08/30 05:55:08;;;;;;;18.33;10.73;;;15.00;99.90;;;;;;5113648;28;20032;-67
2023/08/30 05:57:33;;;;;;;20.05;11.75;;;15.00;99.90;;;;;;5113938;28;20020;-65
2023/08/30 06:00:00;;;;;;;21.13;11.82;;;14.90;99.90;;;;;;5113892;28;20030;-67
2023/08/30 06:02:26;;;;;;;18.92;11.40;;;14.80;99.90;;;;;;5113440;28;20024;-66
2023/08/30 06:04:51;;;;;;;22.90;13.02;;;14.70;99.90;;;;;;5113252;28;20077;-65
2023/08/30 06:07:17;;;;;;;22.38;13.75;;;14.60;99.90;;;;;;5113067;28;20499;-64
2023/08/30 06:09:44;;;;;;;24.05;14.48;;;14.40;99.90;;;;;;5112594;28;20498;-66
2023/08/30 06:12:09;;;;;;;27.50;14.65;;;14.30;99.90;;;;;;5113614;28;20089;-65
2023/08/30 06:14:35;;;;;;;24.95;15.10;;;14.20;99.90;;;;;;5113424;28;20468;-65
2023/08/30 06:17:00;;;;;;;27.50;16.92;;;14.10;99.90;;;;;;5113663;28;20057;-65
2023/08/30 06:19:26;;;;;;;26.75;16.58;;;14.00;99.90;;;;;;5113307;28;20051;-65
2023/08/30 06:21:51;;;;;;;28.73;16.92;;;13.90;99.90;;;;;;5113602;28;20077;-66
2023/08/30 06:24:17;;;;;;;30.90;17.73;;;13.80;99.90;;;;;;5113004;28;20028;-66
2023/08/30 06:26:43;;;;;;;30.55;18.63;;;13.80;99.90;;;;;;5113087;28;20027;-66
2023/08/30 06:29:08;;;;;;;29.98;18.35;;;13.80;99.90;;;;;;5100237;28;20050;-66
2023/08/30 06:31:34;;;;;;;29.55;18.25;;;13.80;99.90;;;;;;5093422;28;20036;-66
2023/08/30 06:34:00;;;;;;;31.90;20.10;;;13.80;99.90;;;;;;5093068;28;20028;-66
2023/08/30 06:36:25;;;;;;;29.83;19.65;;;13.80;99.90;;;;;;5092759;28;20073;-67
2023/08/30 06:38:51;;;;;;;30.75;18.13;;;13.80;99.90;;;;;;5092688;28;20414;-67
2023/08/30 06:41:16;;;;;;;31.00;19.35;;;13.80;99.90;;;;;;5092560;28;20423;-67
2023/08/30 06:43:42;;;;;;;32.22;20.55;;;13.80;99.90;;;;;;5100665;28;20112;-68
2023/08/30 06:46:07;;;;;;;30.98;20.38;;;13.80;99.90;;;;;;5112584;28;20390;-67
2023/08/30 06:48:33;;;;;;;34.70;22.10;;;13.80;99.90;;;;;;5112340;28;20028;-67
2023/08/30 06:50:59;;;;;;;31.42;21.17;;;13.80;99.90;;;;;;5112047;28;20450;-66
2023/08/30 06:53:27;;;;;;;34.55;22.17;;;13.80;99.90;;;;;;5112318;28;20414;-67
2023/08/30 06:55:58;;;;;;;33.03;20.05;;;13.90;99.90;;;;;;5112779;28;20035;-66
2023/08/30 06:58:23;;;;;;;35.67;21.30;;;13.90;99.90;;;;;;5113139;28;20020;-66
2023/08/30 07:00:49;;;;;;;35.85;23.02;;;13.90;99.90;;;;;;5116791;28;20085;-67
2023/08/30 07:03:14;;;;;;;33.85;22.30;;;14.10;99.90;;;;;;5101010;28;20036;-66
2023/08/30 07:05:40;;;;;;;31.52;20.50;;;14.30;99.90;;;;;;5096167;28;20087;-67
2023/08/30 07:08:07;;;;;;;31.88;21.02;;;14.40;99.90;;;;;;5095494;28;20064;-66
2023/08/30 07:10:34;;;;;;;34.70;21.10;;;14.60;99.90;;;;;;5095896;28;20074;-67
2023/08/30 07:13:00;;;;;;;30.25;20.50;;;14.60;99.90;;;;;;5094656;28;20190;-67
2023/08/30 07:15:25;;;;;;;31.05;20.80;;;14.70;99.90;;;;;;5099250;28;20099;-66
2023/08/30 07:17:51;;;;;;;30.25;18.95;;;14.90;99.90;;;;;;5116030;28;20062;-67
2023/08/30 07:20:17;;;;;;;28.20;18.58;;;14.90;99.90;;;;;;5116434;28;20108;-67
2023/08/30 07:22:42;;;;;;;28.80;18.83;;;15.00;99.90;;;;;;5116687;28;20027;-67
2023/08/30 07:25:10;;;;;;;28.85;19.23;;;15.00;99.90;;;;;;5116658;28;20042;-67
2023/08/30 07:27:36;;;;;;;28.27;18.50;;;15.10;99.90;;;;;;5116373;28;20031;-67
2023/08/30 07:30:01;;;;;;;29.90;19.00;;;15.00;99.90;;;;;;5095410;28;20040;-67
2023/08/30 07:32:27;;;;;;;24.55;17.08;;;15.00;99.90;;;;;;5095955;28;20039;-67
2023/08/30 07:34:53;;;;;;;26.13;17.30;;;15.10;99.90;;;;;;5097827;28;20080;-67
2023/08/30 07:37:20;;;;;;;30.08;19.67;;;15.00;99.90;;;;;;5094977;28;20065;-67
2023/08/30 07:39:45;;;;;;;26.00;17.67;;;14.90;99.90;;;;;;5091880;28;20452;-67
2023/08/30 07:42:11;;;;;;;28.58;18.00;;;14.90;99.90;;;;;;5093877;28;20032;-67
2023/08/30 07:44:36;;;;;;;26.75;18.50;;;14.80;99.90;;;;;;5093118;28;20024;-67
2023/08/30 07:47:03;;;;;;;27.95;19.67;;;14.80;99.90;;;;;;5095024;28;20192;-67
2023/08/30 07:49:28;;;;;;;25.50;16.63;;;14.80;99.90;;;;;;5094252;28;20380;-67
2023/08/30 07:51:54;;;;;;;26.60;17.95;;;14.80;99.90;;;;;;5115468;28;20027;-67
2023/08/30 07:54:19;;;;;;;24.27;16.95;;;14.80;99.90;;;;;;5115721;28;20463;-67
2023/08/30 07:56:45;;;;;;;23.15;15.90;;;14.80;99.90;;;;;;5113472;28;20451;-68
2023/08/30 07:59:10;;;;;;;27.77;19.08;;;14.90;99.90;;;;;;5101235;28;20028;-68
2023/08/30 08:01:36;;;;;;;24.55;16.30;;;14.90;99.90;;;;;;5099919;28;20043;-67
2023/08/30 08:04:01;;;;;;;26.73;17.45;;;14.90;99.90;;;;;;5103737;28;20024;-67
2023/08/30 08:06:27;;;;;;;27.90;20.15;;;14.90;99.90;;;;;;5096581;28;20119;-67
2023/08/30 08:08:52;;;;;;;23.73;15.95;;;14.90;99.90;;;;;;5093166;28;20067;-68
2023/08/30 08:11:18;;;;;;;24.55;17.05;;;15.00;99.90;;;;;;5097649;28;20035;-68
2023/08/30 08:13:43;;;;;;;22.80;16.70;;;15.00;99.90;;;;;;5099569;28;20020;-66
2023/08/30 08:16:09;;;;;;;24.00;16.63;;;15.00;99.90;;;;;;5099729;28;20081;-67
2023/08/30 08:18:35;;;;;;;23.52;17.55;;;14.90;99.90;;;;;;5094499;28;20415;-67
2023/08/30 08:21:00;;;;;;;24.45;17.02;;;14.90;99.90;;;;;;5106272;28;20043;-67
2023/08/30 08:23:26;;;;;;;26.95;17.90;;;14.80;99.90;;;;;;5114506;28;20111;-67
2023/08/30 08:25:57;;;;;;;22.88;16.08;;;14.80;99.90;;;;;;5114164;28;20073;-67
2023/08/30 08:28:23;;;;;;;21.58;14.80;;;14.80;99.90;;;;;;5113827;28;20035;-67
2023/08/30 08:30:50;;;;;;;21.60;15.85;;;14.70;99.90;;;;;;5103044;28;20036;-66
2023/08/30 08:33:17;;;;;;;23.17;17.45;;;14.70;99.90;;;;;;5102922;28;20028;-66
2023/08/30 08:35:43;;;;;;;24.23;19.33;;;14.70;99.90;;;;;;5115051;28;20370;-66
2023/08/30 08:38:09;;;;;;;25.50;17.55;;;14.70;99.90;;;;;;5113526;28;20072;-66
2023/08/30 08:40:39;;;;;;;25.42;19.90;;;14.80;99.90;;;;;;5112885;28;20020;-66
2023/08/30 08:43:05;;;;;;;25.95;19.70;;;14.80;99.90;;;;;;5113090;28;20035;-68
2023/08/30 08:45:34;;;;;;;19.77;12.88;;;14.90;99.90;;;;;;5109461;28;20127;-67
2023/08/30 08:48:04;;;;;;;22.70;13.00;;;14.90;99.90;;;;;;5092780;28;20047;-67
2023/08/30 08:50:30;;;;;;;15.07;6.68;;;14.90;99.90;;;;;;5093157;28;20040;-67
2023/08/30 08:52:56;;;;;;;9.45;6.03;;;14.90;99.90;;;;;;5093864;28;20478;-68
2023/08/30 08:55:22;;;;;;;12.73;6.70;;;14.90;99.90;;;;;;5094045;28;20028;-68
2023/08/30 08:57:48;;;;;;;8.63;5.30;;;15.00;99.90;;;;;;5100088;28;20110;-68
2023/08/30 09:00:16;;;;;;;6.32;4.03;;;15.10;99.90;;;;;;5114459;28;20110;-67
2023/08/30 09:02:42;;;;;;;8.75;5.15;;;15.20;99.90;;;;;;5107874;28;20098;-67
2023/08/30 09:05:09;;;;;;;8.60;4.45;;;15.40;99.90;;;;;;5114551;28;20028;-67
2023/08/30 09:07:37;;;;;;;8.02;5.00;;;15.50;99.90;;;;;;5113973;28;20054;-67
2023/08/30 09:10:03;;;;;;;11.98;6.43;;;15.60;99.90;;;;;;5114420;28;20050;-67
2023/08/30 09:12:32;;;;;;;14.05;8.02;;;15.80;99.90;;;;;;5114344;28;20080;-68
2023/08/30 09:14:58;;;;;;;14.77;7.28;;;16.00;99.90;;;;;;5113582;28;20038;-66
2023/08/30 09:17:34;;;;;;;10.27;4.32;;;16.30;99.90;;;;;;5114302;28;20031;-68
2023/08/30 09:20:09;;;;;;;8.10;3.45;;;16.60;99.90;;;;;;5114190;28;20020;-67
2023/08/30 09:22:42;;;;;;;12.55;5.57;;;16.90;99.90;;;;;;5113887;28;20042;-68
2023/08/30 09:25:11;;;;;;;9.43;5.13;;;17.40;99.90;;;;;;5114262;28;20027;-66
2023/08/30 09:27:41;;;;;;;12.75;5.00;;;18.00;99.90;;;;;;5113983;28;20015;-67
2023/08/30 09:30:10;;;;;;;11.52;4.65;;;18.40;99.90;;;;;;5114094;28;20118;-68
2023/08/30 09:32:42;;;;;;;5.50;3.03;;;18.90;99.90;;;;;;5113686;28;20429;-68
2023/08/30 09:35:07;;;;;;;;;;;19.20;99.90;;;;;;5114427;28;20023;-68
2023/08/30 09:37:33;;;;;;;6.03;2.38;;;19.50;99.90;;;;;;5113836;28;20267;-67
2023/08/30 09:39:59;;;;;;;8.27;2.80;;;19.80;99.90;;;;;;5113471;28;20032;-68
2023/08/30 09:42:24;;;;;;;8.63;3.10;;;20.30;99.90;;;;;;5113721;28;20036;-69
2023/08/30 09:44:50;;;;;;;11.25;3.65;;;20.80;99.90;;;;;;5112253;28;20039;-68
2023/08/30 09:47:16;;;;;;;5.35;2.88;;;21.20;99.90;;;;;;5112199;28;20032;-68
2023/08/30 09:49:46;;;;;;;11.00;2.53;;;21.90;99.90;;;;;;5113180;28;20406;-68
2023/08/30 09:52:15;;;;;;;7.93;2.70;;;22.60;99.90;;;;;;5113579;28;20028;-69
2023/08/30 09:54:45;;;;;;;11.52;2.95;;;22.70;99.90;;;;;;5113361;28;20360;-67
2023/08/30 09:57:12;;;;;;;9.45;2.70;;;22.50;99.90;;;;;;5113971;28;20046;-68
2023/08/30 09:59:39;;;;;;;7.93;2.35;;;22.40;99.90;;;;;;5113793;28;20459;-67
2023/08/30 10:02:07;;;;;;;9.55;2.65;;;23.50;99.90;;;;;;5107712;28;20032;-67
2023/08/30 10:04:34;;;;;;;10.85;2.83;;;24.60;99.90;;;;;;5109882;28;20050;-66
2023/08/30 10:07:04;;;;;;;9.38;2.95;;;25.10;99.90;;;;;;5113284;28;20134;-68
2023/08/30 10:09:30;;;;;;;7.43;2.13;;;24.70;99.90;;;;;;5113089;28;20043;-68
2023/08/30 10:11:58;;;;;;;11.90;2.40;;;24.20;99.90;;;;;;5113306;28;20032;-68
2023/08/30 10:14:23;;;;;;;10.27;2.47;;;24.00;99.90;;;;;;5112791;28;20115;-67
2023/08/30 10:16:51;;;;;;;12.60;3.00;;;24.10;99.90;;;;;;5111206;28;20120;-69
2023/08/30 10:19:21;;;;;;;11.38;2.45;;;24.20;99.90;;;;;;5112282;28;20031;-68
2023/08/30 10:21:53;;;;;;;11.70;3.08;;;24.00;99.90;;;;;;5113032;28;20032;-68
2023/08/30 10:24:21;;;;;;;7.13;2.30;;;24.00;99.90;;;;;;5112942;28;20102;-68
2023/08/30 10:26:48;;;;;;;10.60;2.90;;;24.50;99.90;;;;;;5113289;28;20031;-68
2023/08/30 10:29:16;;;;;;;10.90;2.33;;;25.60;99.90;;;;;;5113016;28;20088;-69
2023/08/30 10:31:42;;;;;;;9.40;2.22;;;26.80;97.50;;;;;;5113325;28;20028;-68
2023/08/30 10:34:18;;;;;;;8.18;2.42;;;27.00;96.30;;;;;;5114851;28;20035;-68
2023/08/30 10:36:44;;;;;;;8.55;2.63;;;27.50;96.00;;;;;;5117057;28;20055;-68
2023/08/30 10:39:14;;;;;;;9.40;2.45;;;27.80;95.70;;;;;;5117521;28;20066;-67
2023/08/30 10:41:56;;;;;;;9.98;2.55;;;28.40;95.00;;;;;;5117432;28;20023;-68
2023/08/30 10:44:22;;;;;;;8.73;2.58;;;28.60;94.50;;;;;;5117136;27;20076;-66
2023/08/30 10:46:54;;;;;;;6.68;2.20;;;29.40;94.00;;;;;;5116620;28;20503;-68
2023/08/30 10:49:20;;;;;;;8.38;2.55;;;29.20;92.80;;;;;;5117036;28;20053;-68
2023/08/30 10:51:54;;;;;;;8.43;2.33;;;28.50;93.40;;;;;;5116787;28;20036;-68
2023/08/30 10:54:20;;;;;;;6.47;2.10;;;28.20;94.30;;;;;;5117283;27;20089;-68
2023/08/30 10:56:51;;;;;;;10.30;2.42;;;28.50;93.10;;;;;;5117073;28;20035;-69
2023/08/30 10:59:18;;;;;;;;;;;28.90;92.70;;;;;;5117024;28;20032;-68
2023/08/30 11:01:45;;;;;;;11.05;2.03;;;29.70;92.20;;;;;;5115372;28;20362;-68
2023/08/30 11:04:12;;;;;;;7.07;2.20;;;30.40;91.20;;;;;;5116886;28;20019;-68
2023/08/30 11:06:45;;;;;;;8.93;2.45;;;30.10;90.90;;;;;;5113732;28;20067;-68
2023/08/30 11:09:14;;;;;;;10.57;2.70;;;29.90;91.00;;;;;;5107029;28;20124;-67
2023/08/30 11:11:40;;;;;;;10.40;2.72;;;29.40;91.40;;;;;;5097222;28;20035;-67
2023/08/30 11:14:09;;;;;;;9.32;2.10;;;29.30;91.40;;;;;;5096222;28;20032;-68
2023/08/30 11:16:36;;;;;;;9.55;2.05;;;29.80;91.60;;;;;;5113457;28;20026;-67
2023/08/30 11:19:03;;;;;;;10.30;2.28;;;30.00;90.70;;;;;;5116593;28;20106;-67
2023/08/30 11:21:30;;;;;;;6.05;2.00;;;29.90;90.60;;;;;;5116646;28;20106;-67
2023/08/30 11:23:56;;;;;;;10.82;2.50;;;29.60;90.50;;;;;;5110260;27;20024;-67
2023/08/30 11:26:22;;;;;;;9.50;2.50;;;29.80;90.80;;;;;;5114559;28;20422;-68
2023/08/30 11:28:49;;;;;;;9.57;1.98;;;30.40;89.00;;;;;;5116435;28;20023;-68
2023/08/30 11:31:28;;;;;;;7.35;1.70;;;30.60;88.00;;;;;;5116302;28;20031;-67
2023/08/30 11:33:55;;;;;;;10.00;2.08;;;30.70;88.50;;;;;;5116460;27;20032;-68
2023/08/30 11:36:22;;;;;;;9.32;1.98;;;31.20;87.50;;;;;;5115968;28;20512;-68
2023/08/30 11:38:51;;;;;;;7.35;2.05;;;31.60;85.80;;;;;;5116323;28;20034;-66
2023/08/30 11:41:17;;;;;;;8.27;1.67;;;32.10;85.80;;;;;;5105866;28;20024;-66
2023/08/30 11:43:43;;;;;;;4.80;1.63;;;32.00;83.70;;;;;;5095219;28;20077;-67
2023/08/30 11:46:09;;;;;;;5.28;1.42;;;31.60;83.90;;;;;;5095249;28;20028;-67
2023/08/30 11:48:35;;;;;;;10.50;2.10;;;31.60;83.80;;;;;;5092606;28;20463;-67
2023/08/30 11:51:01;;;;;;;4.50;1.58;;;31.60;82.90;;;;;;5094749;28;20039;-68
2023/08/30 11:53:27;;;;;;;3.00;1.42;;;31.70;83.90;;;;;;5105229;28;20031;-67
2023/08/30 11:55:53;;;;;;;5.30;1.50;;;31.60;84.00;;;;;;5114744;28;20019;-67
2023/08/30 11:58:19;;;;;;;7.07;1.85;;;31.60;83.10;;;;;;5113946;28;20027;-67
2023/08/30 12:00:46;;;;;;;5.05;1.45;;;31.90;83.40;;;;;;5115205;28;20042;-66
2023/08/30 12:03:15;;;;;;;3.38;1.30;;;31.40;83.00;;;;;;5100607;28;20036;-67
2023/08/30 12:05:49;;;;;;;6.75;1.45;;;30.40;83.70;;;;;;5089581;28;20480;-66
2023/08/30 12:08:25;;;;;;;6.32;1.50;;;29.30;85.30;;;;;;5111411;28;20039;-67
2023/08/30 12:10:51;;;;;;;7.57;1.50;;;28.40;86.90;;;;;;5105253;28;20042;-67
2023/08/30 12:13:21;;;;;;;7.80;1.70;;;27.60;88.60;;;;;;5114915;28;20594;-68
2023/08/30 12:15:47;;;;;;;4.15;1.42;;;27.10;90.20;;;;;;5115447;28;20041;-67
2023/08/30 12:18:12;;;;;;;6.63;1.48;;;26.70;90.40;;;;;;5115419;28;20023;-67
2023/08/30 12:20:38;;;;;;;4.70;1.40;;;26.40;90.90;;;;;;5114799;28;20058;-67
2023/08/30 12:23:03;;;;;;;8.68;1.80;;;25.90;91.00;;;;;;5115258;28;20032;-67
2023/08/30 12:25:30;;;;;;;6.45;1.50;;;25.40;91.40;;;;;;5114222;28;20024;-67
2023/08/30 12:27:56;;;;;;;8.90;1.70;;;25.00;92.10;;;;;;5114325;28;20020;-67
2023/08/30 12:30:21;;;;;;;9.35;1.90;;;24.70;92.60;;;;;;5113512;28;20043;-67
2023/08/30 12:32:47;;;;;;;8.50;1.73;;;24.40;94.00;;;;;;5111728;28;20047;-67